Terminal Aerodrome Forecast
Issued by NWS

Current Version | Previous Version | Graphics & Text | Print | Product List | Glossary On
Versions: 1 2 3 4 5 6 7 8 9 10 11 12 13 14 15 16 17 18 19 20
000
FTUS41 KILN 171100
TAFLCK
TAF
KLCK 171134Z 1712/1812 28009KT P6SM BKN018
      TEMPO 1712/1714 SCT018 OVC025
     FM171400 22012G20KT P6SM BKN025
     FM172300 25014KT P6SM OVC028
     FM180700 28012KT P6SM OVC014=

USA.gov is the U.S. government's official web portal to all federal, state and local government web resources and services.